CG Kickapoo — NAHN — position and weather

sailwx.info

Track history (hours):
 
Tides and Currents Weather Stations Pressure Air Temp Water Temp Dewpoint Dewpoint Depression Visibility Wind Speed Wind Dir Waves Ship Positions

CG Kickapoo

Last reported at 2018-Jun-19 21:27 UTC. Time now 2018-Jun-19 21:44 UTC.
Position N 32°23' W 090°53'.

Length 22 m; draft 1.4 m.

Type: Law enforcement. MMSI: 366999518.

Date/timePositionNaut miles runAvg speedWind from/ knotsBaromVisibWave heightAir tempDewpointWater temp
2018-Jun-19 21:27N 32°23' W 090°53'0 0.0
2018-Jun-19 20:57N 32°23' W 090°53'0 0.0
2018-Jun-19 20:27N 32°23' W 090°53'0 0.0
2018-Jun-19 19:58N 32°23' W 090°53'0 0.0
2018-Jun-19 19:27N 32°23' W 090°53'0 0.0
2018-Jun-19 18:57N 32°23' W 090°53'0 0.0
2018-Jun-19 18:27N 32°23' W 090°53'0 0.0
2018-Jun-19 17:57N 32°23' W 090°53'0 0.0
2018-Jun-19 17:27N 32°23' W 090°53'0 0.0
2018-Jun-19 16:57N 32°23' W 090°53'0 0.0
2018-Jun-19 16:27N 32°23' W 090°53'0 0.0
2018-Jun-19 15:57N 32°23' W 090°53'0 0.0
2018-Jun-19 15:28N 32°23' W 090°53'0 0.0
2018-Jun-19 14:58N 32°23' W 090°53'0 0.0
2018-Jun-19 14:28N 32°23' W 090°53'0 0.0
2018-Jun-19 13:58N 32°23' W 090°53'0 0.0
2018-Jun-19 13:16N 32°23' W 090°53'0 0.0
2018-Jun-19 12:46N 32°23' W 090°53'0 0.0
2018-Jun-19 12:28N 32°23' W 090°53'0 0.0
2018-Jun-19 11:57N 32°23' W 090°53'0 0.0
2018-Jun-19 11:27N 32°23' W 090°53'0 0.0
2018-Jun-19 10:57N 32°23' W 090°53'0 0.0
2018-Jun-19 10:27N 32°23' W 090°53'0 0.0
2018-Jun-19 09:57N 32°23' W 090°53'0 0.0
2018-Jun-19 09:27N 32°23' W 090°53'0 0.0
2018-Jun-19 08:57N 32°23' W 090°53'0 0.0
2018-Jun-19 08:27N 32°23' W 090°53'0 0.0
2018-Jun-19 07:57N 32°23' W 090°53'0 0.0
2018-Jun-19 07:27N 32°23' W 090°53'0 0.0
2018-Jun-19 06:57N 32°23' W 090°53'0 0.0
2018-Jun-19 06:28N 32°23' W 090°53'0 0.0
2018-Jun-19 05:58N 32°23' W 090°53'0 0.0
2018-Jun-19 05:22N 32°23' W 090°53'0 0.0
2018-Jun-19 04:58N 32°23' W 090°53'0 0.0
2018-Jun-19 04:22N 32°23' W 090°53'0 0.0
2018-Jun-19 03:58N 32°23' W 090°53'0 0.0
2018-Jun-19 03:28N 32°23' W 090°53'0 0.0
2018-Jun-19 02:57N 32°23' W 090°53'0 0.0
2018-Jun-19 02:27N 32°23' W 090°53'0 0.0
2018-Jun-19 01:57N 32°23' W 090°53'0 0.0
2018-Jun-19 01:27N 32°23' W 090°53'0 0.0
2018-Jun-19 00:57N 32°23' W 090°53'0 0.0
2018-Jun-19 00:30N 32°23' W 090°53'3 5.7
2018-Jun-19 00:01N 32°20' W 090°54'3 6.0
2018-Jun-18 23:30N 32°18' W 090°56'3 5.1
2018-Jun-18 23:01N 32°16' W 090°58'4 7.1
2018-Jun-18 22:30N 32°13' W 090°59'3 6.7
2018-Jun-18 22:00N 32°09' W 090°60'3 5.1
2018-Jun-18 21:23N 32°08' W 091°03'3 5.7
2018-Jun-18 20:55N 32°07' W 091°06'6 1.0
2018-Jun-18 14:37N 32°02' W 091°04'213.5
2018-Jun-18 14:30N 32°03' W 091°03'4 6.8
2018-Jun-18 13:52N 32°07' W 091°03'410.5
2018-Jun-18 13:30N 32°10' W 091°00'612.6
2018-Jun-18 13:00N 32°16' W 090°58'611.7
2018-Jun-18 12:30N 32°21' W 090°53'3 5.0
2018-Jun-18 12:00N 32°23' W 090°53'0 0.0
2018-Jun-18 11:18N 32°23' W 090°53'0 0.0
2018-Jun-18 10:55N 32°23' W 090°53'0 0.0
2018-Jun-18 10:25N 32°23' W 090°53'0 0.0
2018-Jun-18 09:49N 32°23' W 090°53'0 0.0
2018-Jun-18 09:25N 32°23' W 090°53'0 0.0
2018-Jun-18 08:55N 32°23' W 090°53'0 0.0
2018-Jun-18 08:25N 32°23' W 090°53'0 0.0
2018-Jun-18 07:55N 32°23' W 090°53'0 0.0
2018-Jun-18 07:25N 32°23' W 090°53'0 0.0
2018-Jun-18 06:55N 32°23' W 090°53'0 0.0
2018-Jun-18 06:19N 32°23' W 090°53'0 0.0
2018-Jun-18 05:55N 32°23' W 090°53'0 0.0
2018-Jun-18 05:25N 32°23' W 090°53'0 0.0
2018-Jun-18 04:55N 32°23' W 090°53'0 0.0
2018-Jun-18 04:25N 32°23' W 090°53'0 0.0
2018-Jun-18 03:55N 32°23' W 090°53'0 0.0
2018-Jun-18 03:31N 32°23' W 090°53'0 0.0
2018-Jun-18 03:00N 32°23' W 090°53'0 0.0
2018-Jun-18 02:24N 32°23' W 090°53'0 0.0
2018-Jun-18 02:00N 32°23' W 090°53'0 0.0
2018-Jun-18 01:30N 32°23' W 090°53'0 0.0
2018-Jun-18 00:48N 32°23' W 090°53'0 0.0
2018-Jun-18 00:30N 32°23' W 090°53'0 0.0
2018-Jun-18 00:00N 32°23' W 090°53'0 0.0
2018-Jun-17 23:30N 32°23' W 090°53'0 0.0
2018-Jun-17 23:00N 32°23' W 090°53'0 0.0
2018-Jun-17 22:30N 32°23' W 090°53'0 0.0
2018-Jun-17 22:00N 32°23' W 090°53'0 0.0
2018-Jun-17 21:30N 32°23' W 090°53'0 0.0
2018-Jun-17 21:00N 32°23' W 090°53'0 0.0
2018-Jun-17 20:30N 32°23' W 090°53'0 0.0
2018-Jun-17 19:55N 32°23' W 090°53'0 0.0
2018-Jun-17 19:25N 32°23' W 090°53'0 0.0
2018-Jun-17 18:55N 32°23' W 090°53'0 0.0
2018-Jun-17 18:25N 32°23' W 090°53'0 0.0
2018-Jun-17 17:55N 32°23' W 090°53'0 0.0
2018-Jun-17 17:25N 32°23' W 090°53'0 0.0
2018-Jun-17 16:55N 32°23' W 090°53'0 0.0
2018-Jun-17 16:25N 32°23' W 090°53'0 0.0
2018-Jun-17 16:00N 32°23' W 090°53'0 0.0
2018-Jun-17 15:18N 32°23' W 090°53'0 0.0
2018-Jun-17 15:00N 32°23' W 090°53'0 0.0
2018-Jun-17 14:30N 32°23' W 090°53'0 0.0
2018-Jun-17 14:00N 32°23' W 090°53'0 0.0
2018-Jun-17 13:30N 32°23' W 090°53'0 0.0
2018-Jun-17 12:55N 32°23' W 090°53'0 0.0
2018-Jun-17 12:19N 32°23' W 090°53'0 0.0
2018-Jun-17 11:55N 32°23' W 090°53'0 0.0
2018-Jun-17 11:25N 32°23' W 090°53'0 0.0
2018-Jun-17 10:55N 32°23' W 090°53'0 0.0
2018-Jun-17 10:25N 32°23' W 090°53'0 0.0
2018-Jun-17 09:55N 32°23' W 090°53'0 0.0
2018-Jun-17 09:25N 32°23' W 090°53'0 0.0
2018-Jun-17 08:55N 32°23' W 090°53'0 0.0
2018-Jun-17 08:31N 32°23' W 090°53'0 0.0
2018-Jun-17 08:00N 32°23' W 090°53'0 0.0
2018-Jun-17 07:30N 32°23' W 090°53'0 0.0
2018-Jun-17 07:00N 32°23' W 090°53'0 0.0
2018-Jun-17 06:24N 32°23' W 090°53'0 0.0
2018-Jun-17 06:00N 32°23' W 090°53'0 0.0
2018-Jun-17 05:30N 32°23' W 090°53'0 0.0
2018-Jun-17 04:54N 32°23' W 090°53'0 0.0
2018-Jun-17 04:25N 32°23' W 090°53'0 0.0
2018-Jun-17 03:55N 32°23' W 090°53'0 0.0
2018-Jun-17 03:25N 32°23' W 090°53'0 0.0
2018-Jun-17 02:55N 32°23' W 090°53'0 0.0
2018-Jun-17 02:19N 32°23' W 090°53'0 0.0
2018-Jun-17 01:49N 32°23' W 090°53'0 0.0
2018-Jun-17 01:25N 32°23' W 090°53'0 0.0
2018-Jun-17 00:55N 32°23' W 090°53'0 0.0
2018-Jun-17 00:25N 32°23' W 090°53'0 0.0
2018-Jun-16 23:55N 32°23' W 090°53'0 0.0
2018-Jun-16 23:30N 32°23' W 090°53'0 0.0
2018-Jun-16 23:00N 32°23' W 090°53'0 0.0
2018-Jun-16 22:30N 32°23' W 090°53'0 0.0
2018-Jun-16 21:55N 32°23' W 090°53'0 0.0
2018-Jun-16 21:25N 32°23' W 090°53'0 0.0
2018-Jun-16 20:55N 32°23' W 090°53'0 0.0
2018-Jun-16 20:25N 32°23' W 090°53'0 0.0
2018-Jun-16 19:55N 32°23' W 090°53'0 0.0
2018-Jun-16 19:25N 32°23' W 090°53'0 0.0
2018-Jun-16 18:55N 32°23' W 090°53'0 0.0
2018-Jun-16 18:25N 32°23' W 090°53'0 0.0
2018-Jun-16 17:55N 32°23' W 090°53'0 0.0
2018-Jun-16 17:25N 32°23' W 090°53'0 0.0
2018-Jun-16 16:55N 32°23' W 090°53'0 0.0
2018-Jun-16 16:31N 32°23' W 090°53'0 0.0
2018-Jun-16 16:00N 32°23' W 090°53'0 0.0
2018-Jun-16 15:30N 32°23' W 090°53'0 0.0
2018-Jun-16 14:55N 32°23' W 090°53'0 0.0
2018-Jun-16 14:25N 32°23' W 090°53'0 0.0
2018-Jun-16 13:55N 32°23' W 090°53'0 0.0
2018-Jun-16 13:25N 32°23' W 090°53'0 0.0
2018-Jun-16 12:55N 32°23' W 090°53'0 0.0
2018-Jun-16 12:25N 32°23' W 090°53'0 0.0
2018-Jun-16 11:55N 32°23' W 090°53'0 0.0
2018-Jun-16 11:25N 32°23' W 090°53'0 0.0
2018-Jun-16 10:55N 32°23' W 090°53'0 0.0
2018-Jun-16 10:31N 32°23' W 090°53'0 0.0
2018-Jun-16 10:00N 32°23' W 090°53'0 0.0
2018-Jun-16 09:30N 32°23' W 090°53'0 0.0
2018-Jun-16 08:55N 32°23' W 090°53'0 0.0
2018-Jun-16 08:25N 32°23' W 090°53'0 0.0
2018-Jun-16 07:55N 32°23' W 090°53'0 0.0
2018-Jun-16 07:25N 32°23' W 090°53'0 0.0
2018-Jun-16 06:55N 32°23' W 090°53'0 0.0
2018-Jun-16 06:25N 32°23' W 090°53'0 0.0
2018-Jun-16 05:55N 32°23' W 090°53'0 0.0
2018-Jun-16 05:25N 32°23' W 090°53'0 0.0
2018-Jun-16 04:55N 32°23' W 090°53'0 0.0
2018-Jun-16 04:19N 32°23' W 090°53'0 0.0
2018-Jun-16 03:55N 32°23' W 090°53'0 0.0
2018-Jun-16 03:25N 32°23' W 090°53'0 0.0
2018-Jun-16 02:55N 32°23' W 090°53'0 0.0
2018-Jun-16 02:25N 32°23' W 090°53'0 0.0
2018-Jun-16 01:55N 32°23' W 090°53'0 0.0
2018-Jun-16 01:31N 32°23' W 090°53'0 0.0
2018-Jun-16 01:00N 32°23' W 090°53'0 0.0
2018-Jun-16 00:30N 32°23' W 090°53'0 0.0
2018-Jun-15 23:55N 32°23' W 090°53'0 0.0
2018-Jun-15 23:25N 32°23' W 090°53'0 0.0
2018-Jun-15 22:55N 32°23' W 090°53'0 0.0
2018-Jun-15 22:25N 32°23' W 090°53'0 0.0
2018-Jun-15 21:55N 32°23' W 090°53'0 0.0
2018-Jun-15 21:25N 32°23' W 090°53'0 0.0
2018-Jun-15 20:55N 32°23' W 090°53'0 0.0
2018-Jun-15 20:25N 32°23' W 090°53'0 0.0
2018-Jun-15 19:49N 32°23' W 090°53'0 0.0
2018-Jun-15 19:25N 32°23' W 090°53'0 0.0
2018-Jun-15 18:55N 32°23' W 090°53'0 0.0
2018-Jun-15 18:31N 32°23' W 090°53'0 0.0
2018-Jun-15 17:42N 32°23' W 090°53'0 0.0
2018-Jun-15 17:30N 32°23' W 090°53'0 0.0
2018-Jun-15 17:00N 32°23' W 090°53'0 0.0
2018-Jun-15 16:24N 32°23' W 090°53'0 0.0
2018-Jun-15 15:55N 32°23' W 090°53'0 0.0
2018-Jun-15 15:25N 32°23' W 090°53'0 0.0
2018-Jun-15 14:49N 32°23' W 090°53'0 0.0
2018-Jun-15 14:25N 32°23' W 090°53'0 0.0
2018-Jun-15 13:49N 32°23' W 090°53'0 0.0
2018-Jun-15 13:25N 32°23' W 090°53'0 0.0
2018-Jun-15 12:55N 32°23' W 090°53'0 0.0
2018-Jun-15 12:25N 32°23' W 090°53'0 0.0
2018-Jun-15 11:55N 32°23' W 090°53'0 0.0
2018-Jun-15 11:25N 32°23' W 090°53'0 0.0
2018-Jun-15 10:55N 32°23' W 090°53'0 0.0
2018-Jun-15 10:25N 32°23' W 090°53'0 0.0
2018-Jun-15 09:55N 32°23' W 090°53'0 0.0
2018-Jun-15 09:25N 32°23' W 090°53'0 0.0
2018-Jun-15 09:01N 32°23' W 090°53'0 0.0
2018-Jun-15 08:24N 32°23' W 090°53'0 0.0
2018-Jun-15 08:00N 32°23' W 090°53'0 0.0
2018-Jun-15 07:30N 32°23' W 090°53'0 0.0
2018-Jun-15 06:55N 32°23' W 090°53'0 0.0
2018-Jun-15 06:25N 32°23' W 090°53'0 0.0
2018-Jun-15 05:49N 32°23' W 090°53'0 0.0
2018-Jun-15 05:25N 32°23' W 090°53'0 0.0
2018-Jun-15 04:55N 32°23' W 090°53'0 0.0
2018-Jun-15 04:25N 32°23' W 090°53'0 0.0
2018-Jun-15 03:49N 32°23' W 090°53'0 0.0
2018-Jun-15 03:25N 32°23' W 090°53'0 0.0
2018-Jun-15 02:55N 32°23' W 090°53'0 0.0
2018-Jun-15 02:25N 32°23' W 090°53'0 0.0
2018-Jun-15 01:37N 32°23' W 090°53'0 0.0
2018-Jun-15 01:25N 32°23' W 090°53'0 0.0
2018-Jun-15 00:55N 32°23' W 090°53'0 0.0
2018-Jun-15 00:25N 32°23' W 090°53'0 0.0
2018-Jun-15 00:00N 32°23' W 090°53'0 0.0
2018-Jun-14 23:30N 32°23' W 090°53'0 0.0
2018-Jun-14 23:00N 32°23' W 090°53'0 0.0
2018-Jun-14 22:30N 32°23' W 090°53'0 0.0
2018-Jun-14 22:00N 32°23' W 090°53'0 0.0
2018-Jun-14 21:30N 32°23' W 090°53'0 0.0
2018-Jun-14 20:54N 32°23' W 090°53'0 0.0
2018-Jun-14 20:25N 32°23' W 090°53'0 0.0
2018-Jun-14 19:55N 32°23' W 090°53'0 0.0
2018-Jun-14 19:25N 32°23' W 090°53'0 0.0
2018-Jun-14 18:49N 32°23' W 090°53'0 0.0
2018-Jun-14 18:25N 32°23' W 090°53'0 0.0
2018-Jun-14 17:55N 32°23' W 090°53'0 0.0
2018-Jun-14 17:25N 32°23' W 090°53'0 0.0
2018-Jun-14 16:49N 32°23' W 090°53'0 0.0
2018-Jun-14 16:25N 32°23' W 090°53'0 0.0
2018-Jun-14 15:55N 32°23' W 090°53'0 0.0
2018-Jun-14 15:25N 32°23' W 090°53'0 0.0
2018-Jun-14 15:00N 32°23' W 090°53'0 0.0
2018-Jun-14 14:30N 32°23' W 090°53'0 0.0
2018-Jun-14 14:00N 32°23' W 090°53'0 0.0
2018-Jun-14 13:30N 32°23' W 090°53'0 0.0
2018-Jun-14 13:00N 32°23' W 090°53'0 0.0
2018-Jun-14 12:25N 32°23' W 090°53'0 0.0
2018-Jun-14 11:49N 32°23' W 090°53'0 0.0
2018-Jun-14 11:19N 32°23' W 090°53'0 0.0
2018-Jun-14 10:55N 32°23' W 090°53'0 0.0
2018-Jun-14 10:25N 32°23' W 090°53'0 0.0
2018-Jun-14 09:49N 32°23' W 090°53'0 0.0
2018-Jun-14 09:25N 32°23' W 090°53'0 0.0
2018-Jun-14 08:55N 32°23' W 090°53'0 0.0
2018-Jun-14 08:13N 32°23' W 090°53'0 0.0
2018-Jun-14 07:55N 32°23' W 090°53'0 0.0
2018-Jun-14 07:25N 32°23' W 090°53'0 0.0
2018-Jun-14 06:55N 32°23' W 090°53'0 0.0
2018-Jun-14 06:19N 32°23' W 090°53'0 0.0
2018-Jun-14 06:00N 32°23' W 090°53'0 0.0
2018-Jun-14 05:24N 32°23' W 090°53'0 0.0
2018-Jun-14 04:55N 32°23' W 090°53'0 0.0
2018-Jun-14 04:25N 32°23' W 090°53'0 0.0
2018-Jun-14 03:49N 32°23' W 090°53'0 0.0
2018-Jun-14 03:25N 32°23' W 090°53'0 0.0
2018-Jun-14 02:55N 32°23' W 090°53'0 0.0
2018-Jun-14 02:25N 32°23' W 090°53'0 0.0
2018-Jun-14 01:55N 32°23' W 090°53'0 0.0
2018-Jun-14 01:25N 32°23' W 090°53'0 0.0
2018-Jun-14 00:55N 32°23' W 090°53'0 0.0
2018-Jun-14 00:30N 32°23' W 090°53'0 0.0
2018-Jun-14 00:00N 32°23' W 090°53'0 0.0
2018-Jun-13 23:25N 32°23' W 090°53'0 0.0
2018-Jun-13 22:55N 32°23' W 090°53'0 0.0
2018-Jun-13 22:25N 32°23' W 090°53'0 0.0
2018-Jun-13 21:55N 32°23' W 090°53'0 0.0
2018-Jun-13 21:25N 32°23' W 090°53'0 0.0
2018-Jun-13 20:49N 32°23' W 090°53'0 0.0
2018-Jun-13 20:25N 32°23' W 090°53'0 0.0
2018-Jun-13 19:55N 32°23' W 090°53'0 0.0
2018-Jun-13 19:25N 32°23' W 090°53'0 0.0
2018-Jun-13 18:55N 32°23' W 090°53'0 0.0
2018-Jun-13 18:25N 32°23' W 090°53'0 0.0
2018-Jun-13 17:55N 32°23' W 090°53'0 0.0
2018-Jun-13 17:25N 32°23' W 090°53'0 0.0
2018-Jun-13 16:55N 32°23' W 090°53'0 0.0
2018-Jun-13 16:25N 32°23' W 090°53'0 0.0
2018-Jun-13 15:55N 32°23' W 090°53'0 0.0
2018-Jun-13 15:25N 32°23' W 090°53'0 0.0
2018-Jun-13 14:55N 32°23' W 090°53'0 0.0
2018-Jun-13 14:25N 32°23' W 090°53'0 0.0
2018-Jun-13 13:49N 32°23' W 090°53'0 0.0
2018-Jun-13 13:25N 32°23' W 090°53'0 0.0
2018-Jun-13 12:55N 32°23' W 090°53'0 0.0
2018-Jun-13 12:31N 32°23' W 090°53'0 0.0
2018-Jun-13 12:00N 32°23' W 090°53'0 0.0
2018-Jun-13 11:19N 32°23' W 090°53'0 0.0
2018-Jun-13 10:55N 32°23' W 090°53'0 0.0
2018-Jun-13 10:19N 32°23' W 090°53'0 0.0
2018-Jun-13 09:55N 32°23' W 090°53'0 0.0
2018-Jun-13 09:25N 32°23' W 090°53'0 0.0
2018-Jun-13 08:55N 32°23' W 090°53'0 0.0
2018-Jun-13 08:19N 32°23' W 090°53'0 0.0
2018-Jun-13 07:49N 32°23' W 090°53'0 0.0
2018-Jun-13 07:25N 32°23' W 090°53'0 0.0
2018-Jun-13 06:55N 32°23' W 090°53'0 0.0
2018-Jun-13 06:25N 32°23' W 090°53'0 0.0
2018-Jun-13 05:55N 32°23' W 090°53'0 0.0
2018-Jun-13 05:25N 32°23' W 090°53'0 0.0
2018-Jun-13 04:54N 32°23' W 090°53'0 0.0
2018-Jun-13 04:30N 32°23' W 090°53'0 0.0
2018-Jun-13 03:55N 32°23' W 090°53'0 0.0
2018-Jun-13 03:25N 32°23' W 090°53'0 0.0
2018-Jun-13 02:55N 32°23' W 090°53'0 0.0
2018-Jun-13 02:19N 32°23' W 090°53'0 0.0
2018-Jun-13 01:55N 32°23' W 090°53'0 0.0
2018-Jun-13 01:25N 32°23' W 090°53'0 0.0
2018-Jun-13 00:55N 32°23' W 090°53'0 0.0
2018-Jun-13 00:25N 32°23' W 090°53'0 0.0
2018-Jun-12 23:49N 32°23' W 090°53'0 0.0
2018-Jun-12 23:25N 32°23' W 090°53'0 0.0
2018-Jun-12 22:55N 32°23' W 090°53'0 0.0
2018-Jun-12 22:19N 32°23' W 090°53'0 0.0
2018-Jun-12 21:55N 32°23' W 090°53'0 0.0
2018-Jun-12 21:25N 32°23' W 090°53'0 0.0
2018-Jun-12 21:00N 32°23' W 090°53'0 0.0
2018-Jun-12 20:30N 32°23' W 090°53'0 0.0
2018-Jun-12 20:00N 32°23' W 090°53'0 0.0
2018-Jun-12 19:24N 32°23' W 090°53'0 0.0
2018-Jun-12 18:55N 32°23' W 090°53'0 0.0
2018-Jun-12 18:19N 32°23' W 090°53'0 0.0
2018-Jun-12 17:55N 32°23' W 090°53'0 0.0
2018-Jun-12 17:25N 32°23' W 090°53'0 0.0
2018-Jun-12 16:55N 32°23' W 090°53'0 0.0
2018-Jun-12 16:25N 32°23' W 090°53'0 0.0
2018-Jun-12 15:55N 32°23' W 090°53'0 0.0
2018-Jun-12 15:25N 32°23' W 090°53'0 0.0
2018-Jun-12 14:49N 32°23' W 090°53'0 0.0
2018-Jun-12 14:13N 32°23' W 090°53'0 0.0
2018-Jun-12 13:55N 32°23' W 090°53'0 0.0
2018-Jun-12 13:25N 32°23' W 090°53'0 0.0
2018-Jun-12 12:55N 32°23' W 090°53'0 0.0
2018-Jun-12 12:25N 32°23' W 090°53'0 0.0
2018-Jun-12 12:01N 32°23' W 090°53'0 0.0
2018-Jun-12 11:30N 32°23' W 090°53'0 0.0
2018-Jun-12 10:49N 32°23' W 090°53'0 0.0
2018-Jun-12 10:25N 32°23' W 090°53'0 0.0
2018-Jun-12 09:55N 32°23' W 090°53'0 0.0
2018-Jun-12 09:19N 32°23' W 090°53'0 0.0
2018-Jun-12 08:55N 32°23' W 090°53'0 0.0
2018-Jun-12 08:25N 32°23' W 090°53'0 0.0
2018-Jun-12 07:55N 32°23' W 090°53'0 0.0
2018-Jun-12 07:25N 32°23' W 090°53'0 0.0
2018-Jun-12 06:55N 32°23' W 090°53'0 0.0
2018-Jun-12 06:25N 32°23' W 090°53'0 0.0
2018-Jun-12 05:55N 32°23' W 090°53'0 0.0
2018-Jun-12 05:07N 32°23' W 090°53'0 0.0
2018-Jun-12 04:55N 32°23' W 090°53'0 0.0
2018-Jun-12 04:25N 32°23' W 090°53'0 0.0
2018-Jun-12 03:55N 32°23' W 090°53'0 0.0
2018-Jun-12 03:19N 32°23' W 090°53'0 0.0
2018-Jun-12 02:55N 32°23' W 090°53'0 0.0
2018-Jun-12 02:25N 32°23' W 090°53'0 0.0
2018-Jun-12 01:55N 32°23' W 090°53'0 0.0
2018-Jun-12 01:31N 32°23' W 090°53'0 0.0
2018-Jun-12 00:55N 32°23' W 090°53'0 0.0
2018-Jun-12 00:30N 32°23' W 090°53'0 0.0
2018-Jun-11 23:55N 32°23' W 090°53'0 0.0
2018-Jun-11 23:25N 32°23' W 090°53'0 0.0
2018-Jun-11 22:43N 32°23' W 090°53'0 0.0
2018-Jun-11 22:25N 32°23' W 090°53'0 0.0
2018-Jun-11 21:49N 32°23' W 090°53'0 0.0
2018-Jun-11 21:25N 32°23' W 090°53'0 0.0
2018-Jun-11 20:55N 32°23' W 090°53'0 0.0
2018-Jun-11 20:25N 32°23' W 090°53'0 0.0
2018-Jun-11 19:55N 32°23' W 090°53'0 0.0
2018-Jun-11 19:25N 32°23' W 090°53'0 0.0
2018-Jun-11 18:55N 32°23' W 090°53'0 0.0
2018-Jun-11 18:25N 32°23' W 090°53'0 0.0
2018-Jun-11 17:55N 32°23' W 090°53'0 0.0
2018-Jun-11 17:25N 32°23' W 090°53'0 0.0
2018-Jun-11 16:55N 32°23' W 090°53'0 0.0
2018-Jun-11 16:25N 32°23' W 090°53'0 0.0
2018-Jun-11 15:55N 32°23' W 090°53'0 0.0
2018-Jun-11 15:25N 32°23' W 090°53'0 0.0
2018-Jun-11 14:55N 32°23' W 090°53'0 0.0
2018-Jun-11 14:25N 32°23' W 090°53'0 0.0
2018-Jun-11 13:55N 32°23' W 090°53'0 0.0
2018-Jun-11 13:25N 32°23' W 090°53'0 0.0
2018-Jun-11 12:55N 32°23' W 090°53'0 0.0
2018-Jun-11 12:25N 32°23' W 090°53'0 0.0
2018-Jun-11 11:49N 32°23' W 090°53'0 0.0
2018-Jun-11 11:25N 32°23' W 090°53'0 0.0
2018-Jun-11 10:49N 32°23' W 090°53'0 0.0
2018-Jun-11 10:25N 32°23' W 090°53'0 0.0
2018-Jun-11 09:55N 32°23' W 090°53'0 0.0
2018-Jun-11 09:19N 32°23' W 090°53'0 0.0
2018-Jun-11 08:55N 32°23' W 090°53'0 0.0
2018-Jun-11 08:25N 32°23' W 090°53'0 0.0
2018-Jun-11 07:55N 32°23' W 090°53'0 0.0
2018-Jun-11 07:25N 32°23' W 090°53'0 0.0
2018-Jun-11 06:49N 32°23' W 090°53'0 0.0
2018-Jun-11 06:25N 32°23' W 090°53'0 0.0
2018-Jun-11 05:55N 32°23' W 090°53'0 0.0
2018-Jun-11 05:25N 32°23' W 090°53'0 0.0
2018-Jun-11 04:43N 32°23' W 090°53'0 0.0
2018-Jun-11 04:25N 32°23' W 090°53'0 0.0
2018-Jun-11 03:55N 32°23' W 090°53'0 0.0
2018-Jun-11 03:26N 32°23' W 090°53'0 0.0
2018-Jun-11 02:56N 32°23' W 090°53'0 0.0
2018-Jun-11 02:13N 32°23' W 090°53'0 0.0
2018-Jun-11 01:55N 32°23' W 090°53'0 0.0
2018-Jun-11 01:19N 32°23' W 090°53'0 0.0
2018-Jun-11 00:55N 32°23' W 090°53'0 0.0
2018-Jun-11 00:25N 32°23' W 090°53'0 0.0
2018-Jun-10 23:55N 32°23' W 090°53'0 0.0
2018-Jun-10 23:25N 32°23' W 090°53'0 0.0
2018-Jun-10 22:55N 32°23' W 090°53'0 0.0
2018-Jun-10 22:25N 32°23' W 090°53'0 0.0
2018-Jun-10 21:55N 32°23' W 090°53'0 0.0
2018-Jun-10 21:25N 32°23' W 090°53'0 0.0
2018-Jun-10 20:49N 32°23' W 090°53'0 0.0
2018-Jun-10 20:25N 32°23' W 090°53'0 0.0
2018-Jun-10 19:55N 32°23' W 090°53'0 0.0
2018-Jun-10 19:25N 32°23' W 090°53'0 0.0
2018-Jun-10 18:55N 32°23' W 090°53'0 0.0
2018-Jun-10 18:26N 32°23' W 090°53'0 0.0
2018-Jun-10 17:55N 32°23' W 090°53'0 0.0
2018-Jun-10 17:25N 32°23' W 090°53'0 0.0
2018-Jun-10 16:55N 32°23' W 090°53'0 0.0
2018-Jun-10 16:25N 32°23' W 090°53'0 0.0
2018-Jun-10 15:55N 32°23' W 090°53'0 0.0
2018-Jun-10 15:13N 32°23' W 090°53'0 0.0
2018-Jun-10 14:55N 32°23' W 090°53'0 0.0
2018-Jun-10 13:55N 32°23' W 090°53'0 0.0
2018-Jun-10 13:25N 32°23' W 090°53'0 0.0
2018-Jun-10 12:55N 32°23' W 090°53'0 0.0
2018-Jun-10 12:25N 32°23' W 090°53'0 0.0
2018-Jun-10 11:55N 32°23' W 090°53'0 0.0
2018-Jun-10 11:25N 32°23' W 090°53'0 0.0
2018-Jun-10 10:55N 32°23' W 090°53'0 0.0
2018-Jun-10 10:19N 32°23' W 090°53'0 0.0
2018-Jun-10 09:55N 32°23' W 090°53'0 0.0
2018-Jun-10 09:25N 32°23' W 090°53'0 0.0
2018-Jun-10 08:43N 32°23' W 090°53'0 0.0
2018-Jun-10 08:13N 32°23' W 090°53'0 0.0
2018-Jun-10 07:55N 32°23' W 090°53'0 0.0
2018-Jun-10 07:25N 32°23' W 090°53'0 0.0
2018-Jun-10 06:49N 32°23' W 090°53'0 0.0
2018-Jun-10 06:19N 32°23' W 090°53'0 0.0
2018-Jun-10 05:55N 32°23' W 090°53'0 0.0
2018-Jun-10 05:25N 32°23' W 090°53'0 0.0
2018-Jun-10 04:55N 32°23' W 090°53'0 0.0
2018-Jun-10 04:19N 32°23' W 090°53'0 0.0
2018-Jun-10 03:49N 32°23' W 090°53'0 0.0
2018-Jun-10 03:25N 32°23' W 090°53'0 0.0
2018-Jun-10 02:55N 32°23' W 090°53'0 0.0
2018-Jun-10 02:25N 32°23' W 090°53'0 0.0
2018-Jun-10 01:55N 32°23' W 090°53'0 0.0
2018-Jun-10 01:19N 32°23' W 090°53'0 0.0
2018-Jun-10 00:55N 32°23' W 090°53'0 0.0
2018-Jun-10 00:25N 32°23' W 090°53'0 0.0
2018-Jun-09 23:49N 32°23' W 090°53'0 0.0
2018-Jun-09 23:25N 32°23' W 090°53'0 0.0
2018-Jun-09 22:56N 32°23' W 090°53'0 0.0
2018-Jun-09 22:26N 32°23' W 090°53'0 0.0
2018-Jun-09 21:49N 32°23' W 090°53'  
Track history (hours):
 
Tides and Currents Weather Stations Pressure Air Temp Water Temp Dewpoint Dewpoint Depression Visibility Wind Speed Wind Dir Waves Ship Positions

CG Kickapoo

Last reported at 2018-Jun-19 21:27 UTC. Time now 2018-Jun-19 21:44 UTC.
Position N 32°23' W 090°53'.

Length 22 m; draft 1.4 m.

Type: Law enforcement. MMSI: 366999518.

Date/timePositionNaut miles runAvg speedWind from/ knotsBaromVisibWave heightAir tempDewpointWater temp
2018-Jun-19 21:27N 32°23' W 090°53'0 0.0
2018-Jun-19 20:57N 32°23' W 090°53'0 0.0
2018-Jun-19 20:27N 32°23' W 090°53'0 0.0
2018-Jun-19 19:58N 32°23' W 090°53'0 0.0
2018-Jun-19 19:27N 32°23' W 090°53'0 0.0
2018-Jun-19 18:57N 32°23' W 090°53'0 0.0
2018-Jun-19 18:27N 32°23' W 090°53'0 0.0
2018-Jun-19 17:57N 32°23' W 090°53'0 0.0
2018-Jun-19 17:27N 32°23' W 090°53'0 0.0
2018-Jun-19 16:57N 32°23' W 090°53'0 0.0
2018-Jun-19 16:27N 32°23' W 090°53'0 0.0
2018-Jun-19 15:57N 32°23' W 090°53'0 0.0
2018-Jun-19 15:28N 32°23' W 090°53'0 0.0
2018-Jun-19 14:58N 32°23' W 090°53'0 0.0
2018-Jun-19 14:28N 32°23' W 090°53'0 0.0
2018-Jun-19 13:58N 32°23' W 090°53'0 0.0
2018-Jun-19 13:16N 32°23' W 090°53'0 0.0
2018-Jun-19 12:46N 32°23' W 090°53'0 0.0
2018-Jun-19 12:28N 32°23' W 090°53'0 0.0
2018-Jun-19 11:57N 32°23' W 090°53'0 0.0
2018-Jun-19 11:27N 32°23' W 090°53'0 0.0
2018-Jun-19 10:57N 32°23' W 090°53'0 0.0
2018-Jun-19 10:27N 32°23' W 090°53'0 0.0
2018-Jun-19 09:57N 32°23' W 090°53'0 0.0
2018-Jun-19 09:27N 32°23' W 090°53'0 0.0
2018-Jun-19 08:57N 32°23' W 090°53'0 0.0
2018-Jun-19 08:27N 32°23' W 090°53'0 0.0
2018-Jun-19 07:57N 32°23' W 090°53'0 0.0
2018-Jun-19 07:27N 32°23' W 090°53'0 0.0
2018-Jun-19 06:57N 32°23' W 090°53'0 0.0
2018-Jun-19 06:28N 32°23' W 090°53'0 0.0
2018-Jun-19 05:58N 32°23' W 090°53'0 0.0
2018-Jun-19 05:22N 32°23' W 090°53'0 0.0
2018-Jun-19 04:58N 32°23' W 090°53'0 0.0
2018-Jun-19 04:22N 32°23' W 090°53'0 0.0
2018-Jun-19 03:58N 32°23' W 090°53'0 0.0
2018-Jun-19 03:28N 32°23' W 090°53'0 0.0
2018-Jun-19 02:57N 32°23' W 090°53'0 0.0
2018-Jun-19 02:27N 32°23' W 090°53'0 0.0
2018-Jun-19 01:57N 32°23' W 090°53'0 0.0
2018-Jun-19 01:27N 32°23' W 090°53'0 0.0
2018-Jun-19 00:57N 32°23' W 090°53'0 0.0
2018-Jun-19 00:30N 32°23' W 090°53'3 5.7
2018-Jun-19 00:01N 32°20' W 090°54'3 6.0
2018-Jun-18 23:30N 32°18' W 090°56'3 5.1
2018-Jun-18 23:01N 32°16' W 090°58'4 7.1
2018-Jun-18 22:30N 32°13' W 090°59'3 6.7
2018-Jun-18 22:00N 32°09' W 090°60'3 5.1
2018-Jun-18 21:23N 32°08' W 091°03'3 5.7
2018-Jun-18 20:55N 32°07' W 091°06'6 1.0
2018-Jun-18 14:37N 32°02' W 091°04'213.5
2018-Jun-18 14:30N 32°03' W 091°03'4 6.8
2018-Jun-18 13:52N 32°07' W 091°03'410.5
2018-Jun-18 13:30N 32°10' W 091°00'612.6
2018-Jun-18 13:00N 32°16' W 090°58'611.7
2018-Jun-18 12:30N 32°21' W 090°53'3 5.0
2018-Jun-18 12:00N 32°23' W 090°53'0 0.0
2018-Jun-18 11:18N 32°23' W 090°53'0 0.0
2018-Jun-18 10:55N 32°23' W 090°53'0 0.0
2018-Jun-18 10:25N 32°23' W 090°53'0 0.0
2018-Jun-18 09:49N 32°23' W 090°53'0 0.0
2018-Jun-18 09:25N 32°23' W 090°53'0 0.0
2018-Jun-18 08:55N 32°23' W 090°53'0 0.0
2018-Jun-18 08:25N 32°23' W 090°53'0 0.0
2018-Jun-18 07:55N 32°23' W 090°53'0 0.0
2018-Jun-18 07:25N 32°23' W 090°53'0 0.0
2018-Jun-18 06:55N 32°23' W 090°53'0 0.0
2018-Jun-18 06:19N 32°23' W 090°53'0 0.0
2018-Jun-18 05:55N 32°23' W 090°53'0 0.0
2018-Jun-18 05:25N 32°23' W 090°53'0 0.0
2018-Jun-18 04:55N 32°23' W 090°53'0 0.0
2018-Jun-18 04:25N 32°23' W 090°53'0 0.0
2018-Jun-18 03:55N 32°23' W 090°53'0 0.0
2018-Jun-18 03:31N 32°23' W 090°53'0 0.0
2018-Jun-18 03:00N 32°23' W 090°53'0 0.0
2018-Jun-18 02:24N 32°23' W 090°53'0 0.0
2018-Jun-18 02:00N 32°23' W 090°53'0 0.0
2018-Jun-18 01:30N 32°23' W 090°53'0 0.0
2018-Jun-18 00:48N 32°23' W 090°53'0 0.0
2018-Jun-18 00:30N 32°23' W 090°53'0 0.0
2018-Jun-18 00:00N 32°23' W 090°53'0 0.0
2018-Jun-17 23:30N 32°23' W 090°53'0 0.0
2018-Jun-17 23:00N 32°23' W 090°53'0 0.0
2018-Jun-17 22:30N 32°23' W 090°53'0 0.0
2018-Jun-17 22:00N 32°23' W 090°53'0 0.0
2018-Jun-17 21:30N 32°23' W 090°53'0 0.0
2018-Jun-17 21:00N 32°23' W 090°53'0 0.0
2018-Jun-17 20:30N 32°23' W 090°53'0 0.0
2018-Jun-17 19:55N 32°23' W 090°53'0 0.0
2018-Jun-17 19:25N 32°23' W 090°53'0 0.0
2018-Jun-17 18:55N 32°23' W 090°53'0 0.0
2018-Jun-17 18:25N 32°23' W 090°53'0 0.0
2018-Jun-17 17:55N 32°23' W 090°53'0 0.0
2018-Jun-17 17:25N 32°23' W 090°53'0 0.0
2018-Jun-17 16:55N 32°23' W 090°53'0 0.0
2018-Jun-17 16:25N 32°23' W 090°53'0 0.0
2018-Jun-17 16:00N 32°23' W 090°53'0 0.0
2018-Jun-17 15:18N 32°23' W 090°53'0 0.0
2018-Jun-17 15:00N 32°23' W 090°53'0 0.0
2018-Jun-17 14:30N 32°23' W 090°53'0 0.0
2018-Jun-17 14:00N 32°23' W 090°53'0 0.0
2018-Jun-17 13:30N 32°23' W 090°53'0 0.0
2018-Jun-17 12:55N 32°23' W 090°53'0 0.0
2018-Jun-17 12:19N 32°23' W 090°53'0 0.0
2018-Jun-17 11:55N 32°23' W 090°53'0 0.0
2018-Jun-17 11:25N 32°23' W 090°53'0 0.0
2018-Jun-17 10:55N 32°23' W 090°53'0 0.0
2018-Jun-17 10:25N 32°23' W 090°53'0 0.0
2018-Jun-17 09:55N 32°23' W 090°53'0 0.0
2018-Jun-17 09:25N 32°23' W 090°53'0 0.0
2018-Jun-17 08:55N 32°23' W 090°53'0 0.0
2018-Jun-17 08:31N 32°23' W 090°53'0 0.0
2018-Jun-17 08:00N 32°23' W 090°53'0 0.0
2018-Jun-17 07:30N 32°23' W 090°53'0 0.0
2018-Jun-17 07:00N 32°23' W 090°53'0 0.0
2018-Jun-17 06:24N 32°23' W 090°53'0 0.0
2018-Jun-17 06:00N 32°23' W 090°53'0 0.0
2018-Jun-17 05:30N 32°23' W 090°53'0 0.0
2018-Jun-17 04:54N 32°23' W 090°53'0 0.0
2018-Jun-17 04:25N 32°23' W 090°53'0 0.0
2018-Jun-17 03:55N 32°23' W 090°53'0 0.0
2018-Jun-17 03:25N 32°23' W 090°53'0 0.0
2018-Jun-17 02:55N 32°23' W 090°53'0 0.0
2018-Jun-17 02:19N 32°23' W 090°53'0 0.0
2018-Jun-17 01:49N 32°23' W 090°53'0 0.0
2018-Jun-17 01:25N 32°23' W 090°53'0 0.0
2018-Jun-17 00:55N 32°23' W 090°53'0 0.0
2018-Jun-17 00:25N 32°23' W 090°53'0 0.0
2018-Jun-16 23:55N 32°23' W 090°53'0 0.0
2018-Jun-16 23:30N 32°23' W 090°53'0 0.0
2018-Jun-16 23:00N 32°23' W 090°53'0 0.0
2018-Jun-16 22:30N 32°23' W 090°53'0 0.0
2018-Jun-16 21:55N 32°23' W 090°53'0 0.0
2018-Jun-16 21:25N 32°23' W 090°53'0 0.0
2018-Jun-16 20:55N 32°23' W 090°53'0 0.0
2018-Jun-16 20:25N 32°23' W 090°53'0 0.0
2018-Jun-16 19:55N 32°23' W 090°53'0 0.0
2018-Jun-16 19:25N 32°23' W 090°53'0 0.0
2018-Jun-16 18:55N 32°23' W 090°53'0 0.0
2018-Jun-16 18:25N 32°23' W 090°53'0 0.0
2018-Jun-16 17:55N 32°23' W 090°53'0 0.0
2018-Jun-16 17:25N 32°23' W 090°53'0 0.0
2018-Jun-16 16:55N 32°23' W 090°53'0 0.0
2018-Jun-16 16:31N 32°23' W 090°53'0 0.0
2018-Jun-16 16:00N 32°23' W 090°53'0 0.0
2018-Jun-16 15:30N 32°23' W 090°53'0 0.0
2018-Jun-16 14:55N 32°23' W 090°53'0 0.0
2018-Jun-16 14:25N 32°23' W 090°53'0 0.0
2018-Jun-16 13:55N 32°23' W 090°53'0 0.0
2018-Jun-16 13:25N 32°23' W 090°53'0 0.0
2018-Jun-16 12:55N 32°23' W 090°53'0 0.0
2018-Jun-16 12:25N 32°23' W 090°53'0 0.0
2018-Jun-16 11:55N 32°23' W 090°53'0 0.0
2018-Jun-16 11:25N 32°23' W 090°53'0 0.0
2018-Jun-16 10:55N 32°23' W 090°53'0 0.0
2018-Jun-16 10:31N 32°23' W 090°53'0 0.0
2018-Jun-16 10:00N 32°23' W 090°53'0 0.0
2018-Jun-16 09:30N 32°23' W 090°53'0 0.0
2018-Jun-16 08:55N 32°23' W 090°53'0 0.0
2018-Jun-16 08:25N 32°23' W 090°53'0 0.0
2018-Jun-16 07:55N 32°23' W 090°53'0 0.0
2018-Jun-16 07:25N 32°23' W 090°53'0 0.0
2018-Jun-16 06:55N 32°23' W 090°53'0 0.0
2018-Jun-16 06:25N 32°23' W 090°53'0 0.0
2018-Jun-16 05:55N 32°23' W 090°53'0 0.0
2018-Jun-16 05:25N 32°23' W 090°53'0 0.0
2018-Jun-16 04:55N 32°23' W 090°53'0 0.0
2018-Jun-16 04:19N 32°23' W 090°53'0 0.0
2018-Jun-16 03:55N 32°23' W 090°53'0 0.0
2018-Jun-16 03:25N 32°23' W 090°53'0 0.0
2018-Jun-16 02:55N 32°23' W 090°53'0 0.0
2018-Jun-16 02:25N 32°23' W 090°53'0 0.0
2018-Jun-16 01:55N 32°23' W 090°53'0 0.0
2018-Jun-16 01:31N 32°23' W 090°53'0 0.0
2018-Jun-16 01:00N 32°23' W 090°53'0 0.0
2018-Jun-16 00:30N 32°23' W 090°53'0 0.0
2018-Jun-15 23:55N 32°23' W 090°53'0 0.0
2018-Jun-15 23:25N 32°23' W 090°53'0 0.0
2018-Jun-15 22:55N 32°23' W 090°53'0 0.0
2018-Jun-15 22:25N 32°23' W 090°53'0 0.0
2018-Jun-15 21:55N 32°23' W 090°53'0 0.0
2018-Jun-15 21:25N 32°23' W 090°53'0 0.0
2018-Jun-15 20:55N 32°23' W 090°53'0 0.0
2018-Jun-15 20:25N 32°23' W 090°53'0 0.0
2018-Jun-15 19:49N 32°23' W 090°53'0 0.0
2018-Jun-15 19:25N 32°23' W 090°53'0 0.0
2018-Jun-15 18:55N 32°23' W 090°53'0 0.0
2018-Jun-15 18:31N 32°23' W 090°53'0 0.0
2018-Jun-15 17:42N 32°23' W 090°53'0 0.0
2018-Jun-15 17:30N 32°23' W 090°53'0 0.0
2018-Jun-15 17:00N 32°23' W 090°53'0 0.0
2018-Jun-15 16:24N 32°23' W 090°53'0 0.0
2018-Jun-15 15:55N 32°23' W 090°53'0 0.0
2018-Jun-15 15:25N 32°23' W 090°53'0 0.0
2018-Jun-15 14:49N 32°23' W 090°53'0 0.0
2018-Jun-15 14:25N 32°23' W 090°53'0 0.0
2018-Jun-15 13:49N 32°23' W 090°53'0 0.0
2018-Jun-15 13:25N 32°23' W 090°53'0 0.0
2018-Jun-15 12:55N 32°23' W 090°53'0 0.0
2018-Jun-15 12:25N 32°23' W 090°53'0 0.0
2018-Jun-15 11:55N 32°23' W 090°53'0 0.0
2018-Jun-15 11:25N 32°23' W 090°53'0 0.0
2018-Jun-15 10:55N 32°23' W 090°53'0 0.0
2018-Jun-15 10:25N 32°23' W 090°53'0 0.0
2018-Jun-15 09:55N 32°23' W 090°53'0 0.0
2018-Jun-15 09:25N 32°23' W 090°53'0 0.0
2018-Jun-15 09:01N 32°23' W 090°53'0 0.0
2018-Jun-15 08:24N 32°23' W 090°53'0 0.0
2018-Jun-15 08:00N 32°23' W 090°53'0 0.0
2018-Jun-15 07:30N 32°23' W 090°53'0 0.0
2018-Jun-15 06:55N 32°23' W 090°53'0 0.0
2018-Jun-15 06:25N 32°23' W 090°53'0 0.0
2018-Jun-15 05:49N 32°23' W 090°53'0 0.0
2018-Jun-15 05:25N 32°23' W 090°53'0 0.0
2018-Jun-15 04:55N 32°23' W 090°53'0 0.0
2018-Jun-15 04:25N 32°23' W 090°53'0 0.0
2018-Jun-15 03:49N 32°23' W 090°53'0 0.0
2018-Jun-15 03:25N 32°23' W 090°53'0 0.0
2018-Jun-15 02:55N 32°23' W 090°53'0 0.0
2018-Jun-15 02:25N 32°23' W 090°53'0 0.0
2018-Jun-15 01:37N 32°23' W 090°53'0 0.0
2018-Jun-15 01:25N 32°23' W 090°53'0 0.0
2018-Jun-15 00:55N 32°23' W 090°53'0 0.0
2018-Jun-15 00:25N 32°23' W 090°53'0 0.0
2018-Jun-15 00:00N 32°23' W 090°53'0 0.0
2018-Jun-14 23:30N 32°23' W 090°53'0 0.0
2018-Jun-14 23:00N 32°23' W 090°53'0 0.0
2018-Jun-14 22:30N 32°23' W 090°53'0 0.0
2018-Jun-14 22:00N 32°23' W 090°53'0 0.0
2018-Jun-14 21:30N 32°23' W 090°53'0 0.0
2018-Jun-14 20:54N 32°23' W 090°53'0 0.0
2018-Jun-14 20:25N 32°23' W 090°53'0 0.0
2018-Jun-14 19:55N 32°23' W 090°53'0 0.0
2018-Jun-14 19:25N 32°23' W 090°53'0 0.0
2018-Jun-14 18:49N 32°23' W 090°53'0 0.0
2018-Jun-14 18:25N 32°23' W 090°53'0 0.0
2018-Jun-14 17:55N 32°23' W 090°53'0 0.0
2018-Jun-14 17:25N 32°23' W 090°53'0 0.0
2018-Jun-14 16:49N 32°23' W 090°53'0 0.0
2018-Jun-14 16:25N 32°23' W 090°53'0 0.0
2018-Jun-14 15:55N 32°23' W 090°53'0 0.0
2018-Jun-14 15:25N 32°23' W 090°53'0 0.0
2018-Jun-14 15:00N 32°23' W 090°53'0 0.0
2018-Jun-14 14:30N 32°23' W 090°53'0 0.0
2018-Jun-14 14:00N 32°23' W 090°53'0 0.0
2018-Jun-14 13:30N 32°23' W 090°53'0 0.0
2018-Jun-14 13:00N 32°23' W 090°53'0 0.0
2018-Jun-14 12:25N 32°23' W 090°53'0 0.0
2018-Jun-14 11:49N 32°23' W 090°53'0 0.0
2018-Jun-14 11:19N 32°23' W 090°53'0 0.0
2018-Jun-14 10:55N 32°23' W 090°53'0 0.0
2018-Jun-14 10:25N 32°23' W 090°53'0 0.0
2018-Jun-14 09:49N 32°23' W 090°53'0 0.0
2018-Jun-14 09:25N 32°23' W 090°53'0 0.0
2018-Jun-14 08:55N 32°23' W 090°53'0 0.0
2018-Jun-14 08:13N 32°23' W 090°53'0 0.0
2018-Jun-14 07:55N 32°23' W 090°53'0 0.0
2018-Jun-14 07:25N 32°23' W 090°53'0 0.0
2018-Jun-14 06:55N 32°23' W 090°53'0 0.0
2018-Jun-14 06:19N 32°23' W 090°53'0 0.0
2018-Jun-14 06:00N 32°23' W 090°53'0 0.0
2018-Jun-14 05:24N 32°23' W 090°53'0 0.0
2018-Jun-14 04:55N 32°23' W 090°53'0 0.0
2018-Jun-14 04:25N 32°23' W 090°53'0 0.0
2018-Jun-14 03:49N 32°23' W 090°53'0 0.0
2018-Jun-14 03:25N 32°23' W 090°53'0 0.0
2018-Jun-14 02:55N 32°23' W 090°53'0 0.0
2018-Jun-14 02:25N 32°23' W 090°53'0 0.0
2018-Jun-14 01:55N 32°23' W 090°53'0 0.0
2018-Jun-14 01:25N 32°23' W 090°53'0 0.0
2018-Jun-14 00:55N 32°23' W 090°53'0 0.0
2018-Jun-14 00:30N 32°23' W 090°53'0 0.0
2018-Jun-14 00:00N 32°23' W 090°53'0 0.0
2018-Jun-13 23:25N 32°23' W 090°53'0 0.0
2018-Jun-13 22:55N 32°23' W 090°53'0 0.0
2018-Jun-13 22:25N 32°23' W 090°53'0 0.0
2018-Jun-13 21:55N 32°23' W 090°53'0 0.0
2018-Jun-13 21:25N 32°23' W 090°53'0 0.0
2018-Jun-13 20:49N 32°23' W 090°53'0 0.0
2018-Jun-13 20:25N 32°23' W 090°53'0 0.0
2018-Jun-13 19:55N 32°23' W 090°53'0 0.0
2018-Jun-13 19:25N 32°23' W 090°53'0 0.0
2018-Jun-13 18:55N 32°23' W 090°53'0 0.0
2018-Jun-13 18:25N 32°23' W 090°53'0 0.0
2018-Jun-13 17:55N 32°23' W 090°53'0 0.0
2018-Jun-13 17:25N 32°23' W 090°53'0 0.0
2018-Jun-13 16:55N 32°23' W 090°53'0 0.0
2018-Jun-13 16:25N 32°23' W 090°53'0 0.0
2018-Jun-13 15:55N 32°23' W 090°53'0 0.0
2018-Jun-13 15:25N 32°23' W 090°53'0 0.0
2018-Jun-13 14:55N 32°23' W 090°53'0 0.0
2018-Jun-13 14:25N 32°23' W 090°53'0 0.0
2018-Jun-13 13:49N 32°23' W 090°53'0 0.0
2018-Jun-13 13:25N 32°23' W 090°53'0 0.0
2018-Jun-13 12:55N 32°23' W 090°53'0 0.0
2018-Jun-13 12:31N 32°23' W 090°53'0 0.0
2018-Jun-13 12:00N 32°23' W 090°53'0 0.0
2018-Jun-13 11:19N 32°23' W 090°53'0 0.0
2018-Jun-13 10:55N 32°23' W 090°53'0 0.0
2018-Jun-13 10:19N 32°23' W 090°53'0 0.0
2018-Jun-13 09:55N 32°23' W 090°53'0 0.0
2018-Jun-13 09:25N 32°23' W 090°53'0 0.0
2018-Jun-13 08:55N 32°23' W 090°53'0 0.0
2018-Jun-13 08:19N 32°23' W 090°53'0 0.0
2018-Jun-13 07:49N 32°23' W 090°53'0 0.0
2018-Jun-13 07:25N 32°23' W 090°53'0 0.0
2018-Jun-13 06:55N 32°23' W 090°53'0 0.0
2018-Jun-13 06:25N 32°23' W 090°53'0 0.0
2018-Jun-13 05:55N 32°23' W 090°53'0 0.0
2018-Jun-13 05:25N 32°23' W 090°53'0 0.0
2018-Jun-13 04:54N 32°23' W 090°53'0 0.0
2018-Jun-13 04:30N 32°23' W 090°53'0 0.0
2018-Jun-13 03:55N 32°23' W 090°53'0 0.0
2018-Jun-13 03:25N 32°23' W 090°53'0 0.0
2018-Jun-13 02:55N 32°23' W 090°53'0 0.0
2018-Jun-13 02:19N 32°23' W 090°53'0 0.0
2018-Jun-13 01:55N 32°23' W 090°53'0 0.0
2018-Jun-13 01:25N 32°23' W 090°53'0 0.0
2018-Jun-13 00:55N 32°23' W 090°53'0 0.0
2018-Jun-13 00:25N 32°23' W 090°53'0 0.0
2018-Jun-12 23:49N 32°23' W 090°53'0 0.0
2018-Jun-12 23:25N 32°23' W 090°53'0 0.0
2018-Jun-12 22:55N 32°23' W 090°53'0 0.0
2018-Jun-12 22:19N 32°23' W 090°53'0 0.0
2018-Jun-12 21:55N 32°23' W 090°53'0 0.0
2018-Jun-12 21:25N 32°23' W 090°53'0 0.0
2018-Jun-12 21:00N 32°23' W 090°53'0 0.0
2018-Jun-12 20:30N 32°23' W 090°53'0 0.0
2018-Jun-12 20:00N 32°23' W 090°53'0 0.0
2018-Jun-12 19:24N 32°23' W 090°53'0 0.0
2018-Jun-12 18:55N 32°23' W 090°53'0 0.0
2018-Jun-12 18:19N 32°23' W 090°53'0 0.0
2018-Jun-12 17:55N 32°23' W 090°53'0 0.0
2018-Jun-12 17:25N 32°23' W 090°53'0 0.0
2018-Jun-12 16:55N 32°23' W 090°53'0 0.0
2018-Jun-12 16:25N 32°23' W 090°53'0 0.0
2018-Jun-12 15:55N 32°23' W 090°53'0 0.0
2018-Jun-12 15:25N 32°23' W 090°53'0 0.0
2018-Jun-12 14:49N 32°23' W 090°53'0 0.0
2018-Jun-12 14:13N 32°23' W 090°53'0 0.0
2018-Jun-12 13:55N 32°23' W 090°53'0 0.0
2018-Jun-12 13:25N 32°23' W 090°53'0 0.0
2018-Jun-12 12:55N 32°23' W 090°53'0 0.0
2018-Jun-12 12:25N 32°23' W 090°53'0 0.0
2018-Jun-12 12:01N 32°23' W 090°53'0 0.0
2018-Jun-12 11:30N 32°23' W 090°53'0 0.0
2018-Jun-12 10:49N 32°23' W 090°53'0 0.0
2018-Jun-12 10:25N 32°23' W 090°53'0 0.0
2018-Jun-12 09:55N 32°23' W 090°53'0 0.0
2018-Jun-12 09:19N 32°23' W 090°53'0 0.0
2018-Jun-12 08:55N 32°23' W 090°53'0 0.0
2018-Jun-12 08:25N 32°23' W 090°53'0 0.0
2018-Jun-12 07:55N 32°23' W 090°53'0 0.0
2018-Jun-12 07:25N 32°23' W 090°53'0 0.0
2018-Jun-12 06:55N 32°23' W 090°53'0 0.0
2018-Jun-12 06:25N 32°23' W 090°53'0 0.0
2018-Jun-12 05:55N 32°23' W 090°53'0 0.0
2018-Jun-12 05:07N 32°23' W 090°53'0 0.0
2018-Jun-12 04:55N 32°23' W 090°53'0 0.0
2018-Jun-12 04:25N 32°23' W 090°53'0 0.0
2018-Jun-12 03:55N 32°23' W 090°53'0 0.0
2018-Jun-12 03:19N 32°23' W 090°53'0 0.0
2018-Jun-12 02:55N 32°23' W 090°53'0 0.0
2018-Jun-12 02:25N 32°23' W 090°53'0 0.0
2018-Jun-12 01:55N 32°23' W 090°53'0 0.0
2018-Jun-12 01:31N 32°23' W 090°53'0 0.0
2018-Jun-12 00:55N 32°23' W 090°53'0 0.0
2018-Jun-12 00:30N 32°23' W 090°53'0 0.0
2018-Jun-11 23:55N 32°23' W 090°53'0 0.0
2018-Jun-11 23:25N 32°23' W 090°53'0 0.0
2018-Jun-11 22:43N 32°23' W 090°53'0 0.0
2018-Jun-11 22:25N 32°23' W 090°53'0 0.0
2018-Jun-11 21:49N 32°23' W 090°53'0 0.0
2018-Jun-11 21:25N 32°23' W 090°53'0 0.0
2018-Jun-11 20:55N 32°23' W 090°53'0 0.0
2018-Jun-11 20:25N 32°23' W 090°53'0 0.0
2018-Jun-11 19:55N 32°23' W 090°53'0 0.0
2018-Jun-11 19:25N 32°23' W 090°53'0 0.0
2018-Jun-11 18:55N 32°23' W 090°53'0 0.0
2018-Jun-11 18:25N 32°23' W 090°53'0 0.0
2018-Jun-11 17:55N 32°23' W 090°53'0 0.0
2018-Jun-11 17:25N 32°23' W 090°53'0 0.0
2018-Jun-11 16:55N 32°23' W 090°53'0 0.0
2018-Jun-11 16:25N 32°23' W 090°53'0 0.0
2018-Jun-11 15:55N 32°23' W 090°53'0 0.0
2018-Jun-11 15:25N 32°23' W 090°53'0 0.0
2018-Jun-11 14:55N 32°23' W 090°53'0 0.0
2018-Jun-11 14:25N 32°23' W 090°53'0 0.0
2018-Jun-11 13:55N 32°23' W 090°53'0 0.0
2018-Jun-11 13:25N 32°23' W 090°53'0 0.0
2018-Jun-11 12:55N 32°23' W 090°53'0 0.0
2018-Jun-11 12:25N 32°23' W 090°53'0 0.0
2018-Jun-11 11:49N 32°23' W 090°53'0 0.0
2018-Jun-11 11:25N 32°23' W 090°53'0 0.0
2018-Jun-11 10:49N 32°23' W 090°53'0 0.0
2018-Jun-11 10:25N 32°23' W 090°53'0 0.0
2018-Jun-11 09:55N 32°23' W 090°53'0 0.0
2018-Jun-11 09:19N 32°23' W 090°53'0 0.0
2018-Jun-11 08:55N 32°23' W 090°53'0 0.0
2018-Jun-11 08:25N 32°23' W 090°53'0 0.0
2018-Jun-11 07:55N 32°23' W 090°53'0 0.0
2018-Jun-11 07:25N 32°23' W 090°53'0 0.0
2018-Jun-11 06:49N 32°23' W 090°53'0 0.0
2018-Jun-11 06:25N 32°23' W 090°53'0 0.0
2018-Jun-11 05:55N 32°23' W 090°53'0 0.0
2018-Jun-11 05:25N 32°23' W 090°53'0 0.0
2018-Jun-11 04:43N 32°23' W 090°53'0 0.0
2018-Jun-11 04:25N 32°23' W 090°53'0 0.0
2018-Jun-11 03:55N 32°23' W 090°53'0 0.0
2018-Jun-11 03:26N 32°23' W 090°53'0 0.0
2018-Jun-11 02:56N 32°23' W 090°53'0 0.0
2018-Jun-11 02:13N 32°23' W 090°53'0 0.0
2018-Jun-11 01:55N 32°23' W 090°53'0 0.0
2018-Jun-11 01:19N 32°23' W 090°53'0 0.0
2018-Jun-11 00:55N 32°23' W 090°53'0 0.0
2018-Jun-11 00:25N 32°23' W 090°53'0 0.0
2018-Jun-10 23:55N 32°23' W 090°53'0 0.0
2018-Jun-10 23:25N 32°23' W 090°53'0 0.0
2018-Jun-10 22:55N 32°23' W 090°53'0 0.0
2018-Jun-10 22:25N 32°23' W 090°53'0 0.0
2018-Jun-10 21:55N 32°23' W 090°53'0 0.0
2018-Jun-10 21:25N 32°23' W 090°53'0 0.0
2018-Jun-10 20:49N 32°23' W 090°53'0 0.0
2018-Jun-10 20:25N 32°23' W 090°53'0 0.0
2018-Jun-10 19:55N 32°23' W 090°53'0 0.0
2018-Jun-10 19:25N 32°23' W 090°53'0 0.0
2018-Jun-10 18:55N 32°23' W 090°53'0 0.0
2018-Jun-10 18:26N 32°23' W 090°53'0 0.0
2018-Jun-10 17:55N 32°23' W 090°53'0 0.0
2018-Jun-10 17:25N 32°23' W 090°53'0 0.0
2018-Jun-10 16:55N 32°23' W 090°53'0 0.0
2018-Jun-10 16:25N 32°23' W 090°53'0 0.0
2018-Jun-10 15:55N 32°23' W 090°53'0 0.0
2018-Jun-10 15:13N 32°23' W 090°53'0 0.0
2018-Jun-10 14:55N 32°23' W 090°53'0 0.0
2018-Jun-10 13:55N 32°23' W 090°53'0 0.0
2018-Jun-10 13:25N 32°23' W 090°53'0 0.0
2018-Jun-10 12:55N 32°23' W 090°53'0 0.0
2018-Jun-10 12:25N 32°23' W 090°53'0 0.0
2018-Jun-10 11:55N 32°23' W 090°53'0 0.0
2018-Jun-10 11:25N 32°23' W 090°53'0 0.0
2018-Jun-10 10:55N 32°23' W 090°53'0 0.0
2018-Jun-10 10:19N 32°23' W 090°53'0 0.0
2018-Jun-10 09:55N 32°23' W 090°53'0 0.0
2018-Jun-10 09:25N 32°23' W 090°53'0 0.0
2018-Jun-10 08:43N 32°23' W 090°53'0 0.0
2018-Jun-10 08:13N 32°23' W 090°53'0 0.0
2018-Jun-10 07:55N 32°23' W 090°53'0 0.0
2018-Jun-10 07:25N 32°23' W 090°53'0 0.0
2018-Jun-10 06:49N 32°23' W 090°53'0 0.0
2018-Jun-10 06:19N 32°23' W 090°53'0 0.0
2018-Jun-10 05:55N 32°23' W 090°53'0 0.0
2018-Jun-10 05:25N 32°23' W 090°53'0 0.0
2018-Jun-10 04:55N 32°23' W 090°53'0 0.0
2018-Jun-10 04:19N 32°23' W 090°53'0 0.0
2018-Jun-10 03:49N 32°23' W 090°53'0 0.0
2018-Jun-10 03:25N 32°23' W 090°53'0 0.0
2018-Jun-10 02:55N 32°23' W 090°53'0 0.0
2018-Jun-10 02:25N 32°23' W 090°53'0 0.0
2018-Jun-10 01:55N 32°23' W 090°53'0 0.0
2018-Jun-10 01:19N 32°23' W 090°53'0 0.0
2018-Jun-10 00:55N 32°23' W 090°53'0 0.0
2018-Jun-10 00:25N 32°23' W 090°53'0 0.0
2018-Jun-09 23:49N 32°23' W 090°53'0 0.0
2018-Jun-09 23:25N 32°23' W 090°53'0 0.0
2018-Jun-09 22:56N 32°23' W 090°53'0 0.0
2018-Jun-09 22:26N 32°23' W 090°53'0 0.0
2018-Jun-09 21:49N 32°23' W 090°53'  

Dump ship's entire track history